Time;durP1;ratioP1;P1;durP2;ratioP2;P2;SDS_P1;SDS_P2;PMS_P1;PMS_P2;Temp;Humidity;BMP_temperature;BMP_pressure;BME280_temperature;BME280_humidity;BME280_pressure;Samples;Min_cycle;Max_cycle;Signal;HPM_P1;HPM_P2
2021/05/08 00:01:54;;;;;;;7.70;5.30;;;;;;;3.36;74.78;100286.42;2274707;77;21705;-75
2021/05/08 00:04:55;;;;;;;;;;;;;;;3.33;74.83;100285.83;2277504;77;21148;-76
2021/05/08 00:07:56;;;;;;;8.18;4.67;;;;;;;3.28;75.03;100287.48;2270887;77;20697;-77
2021/05/08 00:10:58;;;;;;;6.40;4.40;;;;;;;3.21;75.03;100284.11;2264108;77;21172;-79
2021/05/08 00:13:59;;;;;;;9.18;4.55;;;;;;;3.18;75.49;100286.97;2262831;77;21184;-76
2021/05/08 00:17:00;;;;;;;8.18;5.17;;;;;;;3.16;75.50;100292.34;2262278;77;21101;-76
2021/05/08 00:20:05;;;;;;;7.78;4.83;;;;;;;3.17;75.35;100287.94;2263131;77;21141;-76
2021/05/08 00:23:06;;;;;;;7.08;4.80;;;;;;;3.16;75.69;100287.58;2264466;77;21674;-76
2021/05/08 00:26:07;;;;;;;7.47;5.55;;;;;;;3.13;75.79;100286.85;2266687;77;21136;-76
2021/05/08 00:29:08;;;;;;;;;;;;;;;3.13;75.86;100297.82;2266367;77;21647;-76
2021/05/08 00:32:09;;;;;;;9.88;5.17;;;;;;;3.11;75.76;100300.55;2263126;77;20308;-76
2021/05/08 00:35:11;;;;;;;8.18;5.42;;;;;;;3.09;75.75;100305.06;2262997;77;21191;-77
2021/05/08 00:38:12;;;;;;;8.45;5.12;;;;;;;3.05;75.78;100299.70;2264694;77;21179;-77
2021/05/08 00:41:13;;;;;;;7.67;4.83;;;;;;;3.04;76.07;100308.52;2264324;77;21065;-76
2021/05/08 00:44:15;;;;;;;6.72;4.78;;;;;;;3.07;76.08;100308.30;2264409;77;21578;-77
2021/05/08 00:47:19;;;;;;;9.18;4.90;;;;;;;3.05;75.90;100315.42;2261541;77;21191;-80
2021/05/08 00:50:21;;;;;;;6.53;4.47;;;;;;;3.06;75.83;100311.84;2242215;77;21168;-80
2021/05/08 00:53:23;;;;;;;8.58;5.35;;;;;;;3.06;76.09;100313.16;2265280;77;21147;-76
2021/05/08 00:56:26;;;;;;;7.62;5.10;;;;;;;3.04;75.99;100320.31;2261925;76;21175;-77
2021/05/08 00:59:28;;;;;;;7.92;5.45;;;;;;;3.06;76.14;100317.56;2269397;77;21136;-76
2021/05/08 01:02:30;;;;;;;10.13;5.97;;;;;;;3.04;75.84;100319.01;2263923;76;21153;-77
2021/05/08 01:05:32;;;;;;;6.70;5.30;;;;;;;3.02;75.85;100322.69;2262852;77;21168;-77
2021/05/08 01:08:35;;;;;;;7.70;4.90;;;;;;;2.93;75.83;100322.89;2262676;77;21156;-76
2021/05/08 01:11:36;;;;;;;7.95;5.20;;;;;;;2.89;75.96;100323.57;2265768;77;21205;-78
2021/05/08 01:14:39;;;;;;;6.75;4.53;;;;;;;2.83;75.88;100321.41;2262308;77;21203;-76
2021/05/08 01:17:41;;;;;;;6.17;4.60;;;;;;;2.78;75.89;100319.59;2265501;76;21149;-76
2021/05/08 01:20:44;;;;;;;7.17;4.90;;;;;;;2.76;75.83;100321.95;2266309;77;21175;-76
2021/05/08 01:23:46;;;;;;;7.05;5.30;;;;;;;2.69;76.10;100323.72;2265522;77;21136;-76
2021/05/08 01:26:47;;;;;;;7.47;5.80;;;;;;;2.68;76.29;100327.30;2259950;77;21125;-78
2021/05/08 01:29:48;;;;;;;10.53;6.17;;;;;;;2.65;76.27;100321.45;2268588;77;21172;-81
2021/05/08 01:32:51;;;;;;;10.53;6.40;;;;;;;2.62;76.32;100322.50;2261569;77;21175;-76
2021/05/08 01:35:54;;;;;;;9.23;6.47;;;;;;;2.57;76.37;100330.33;2268257;77;21121;-77
2021/05/08 01:38:56;;;;;;;7.67;6.00;;;;;;;2.49;76.80;100330.88;2265740;77;21156;-78
2021/05/08 01:41:57;;;;;;;9.88;5.80;;;;;;;2.46;76.44;100336.33;2268800;77;21129;-79
2021/05/08 01:45:16;;;;;;;9.30;5.67;;;;;;;2.46;76.51;100337.64;2261754;77;21148;-76
2021/05/08 01:48:17;;;;;;;7.60;5.85;;;;;;;2.45;76.56;100339.43;2265771;77;21136;-77
2021/05/08 01:51:18;;;;;;;;;;;;;;;2.46;76.65;100343.71;2265800;76;21643;-77
2021/05/08 01:54:20;;;;;;;7.42;6.25;;;;;;;2.41;76.60;100346.30;2265177;76;20317;-80
2021/05/08 01:57:22;;;;;;;9.90;6.00;;;;;;;2.41;76.93;100351.05;2261425;76;21171;-80
2021/05/08 02:00:41;;;;;;;12.93;7.12;;;;;;;2.40;76.99;100361.17;2237805;77;21341;-77
2021/05/08 02:03:42;;;;;;;11.83;7.75;;;;;;;2.40;76.90;100351.18;2265948;77;21125;-78
2021/05/08 02:06:49;;;;;;;11.30;7.17;;;;;;;2.36;76.78;100354.47;2265708;77;21629;-77
2021/05/08 02:09:52;;;;;;;13.88;8.20;;;;;;;2.34;76.77;100357.69;2234662;77;21133;-77
2021/05/08 02:12:53;;;;;;;11.30;7.30;;;;;;;2.36;76.83;100351.02;2256414;77;21171;-77
2021/05/08 02:15:56;;;;;;;11.60;7.07;;;;;;;2.37;76.76;100359.25;2260037;76;21520;-76
2021/05/08 02:18:57;;;;;;;11.08;7.50;;;;;;;2.35;76.75;100356.73;2265103;77;21145;-77
2021/05/08 02:21:59;;;;;;;14.75;8.13;;;;;;;2.34;76.76;100360.30;2260011;77;21196;-76
2021/05/08 02:25:02;;;;;;;12.73;8.10;;;;;;;2.33;76.76;100357.30;2255300;77;21157;-77
2021/05/08 02:28:04;;;;;;;14.20;8.95;;;;;;;2.31;76.67;100355.29;2262049;77;21092;-77
2021/05/08 02:31:06;;;;;;;14.68;9.00;;;;;;;2.32;76.67;100358.73;2255535;77;21199;-77
2021/05/08 02:34:07;;;;;;;;;;;;;;;2.29;76.59;100359.78;2259997;77;21132;-80
2021/05/08 02:37:10;;;;;;;16.73;10.03;;;;;;;2.27;76.60;100364.77;2257346;77;20896;-79
2021/05/08 02:40:21;;;;;;;13.98;9.45;;;;;;;2.20;76.58;100366.51;2257248;77;21176;-79
2021/05/08 02:43:23;;;;;;;18.10;10.08;;;;;;;2.12;76.42;100367.98;2255395;77;21151;-78
2021/05/08 02:46:29;;;;;;;14.50;9.48;;;;;;;2.07;76.53;100380.08;2255079;77;21187;-79
2021/05/08 02:49:30;;;;;;;15.58;7.90;;;;;;;2.07;76.69;100385.31;2259227;77;21457;-79
2021/05/08 02:52:31;;;;;;;12.90;6.97;;;;;;;2.09;76.68;100384.73;2262030;77;21472;-77
2021/05/08 02:55:33;;;;;;;10.43;6.65;;;;;;;2.13;76.79;100382.27;2257188;77;21230;-77
2021/05/08 02:58:34;;;;;;;;;;;;;;;2.19;76.80;100392.30;2260010;77;21564;-77
2021/05/08 03:01:36;;;;;;;8.35;6.12;;;;;;;2.23;76.82;100399.02;2264302;76;20176;-76
2021/05/08 03:04:37;;;;;;;10.20;6.60;;;;;;;2.23;76.97;100395.57;2256940;77;21183;-77
2021/05/08 03:07:39;;;;;;;11.57;6.40;;;;;;;2.26;76.96;100397.97;2255167;77;21164;-77
2021/05/08 03:10:41;;;;;;;9.53;6.87;;;;;;;2.29;77.04;100397.75;2260891;77;21164;-79
2021/05/08 03:13:43;;;;;;;10.75;6.55;;;;;;;2.34;77.00;100394.83;2272272;77;21153;-77
2021/05/08 03:16:44;;;;;;;;;;;;;;;2.40;77.05;100397.02;2264787;77;21172;-79
2021/05/08 03:19:45;;;;;;;;;;;;;;;2.48;76.96;100398.62;2268440;77;20212;-78
2021/05/08 03:22:46;;;;;;;9.63;5.92;;;;;;;2.60;77.13;100398.22;2249738;76;20176;-76
2021/05/08 03:25:48;;;;;;;10.78;5.78;;;;;;;2.60;77.13;100398.22;2275035;76;21160;-77
2021/05/08 03:28:50;;;;;;;9.75;6.33;;;;;;;2.67;76.87;100403.37;2279346;77;21191;-76
2021/05/08 03:31:51;;;;;;;8.70;6.58;;;;;;;2.71;76.63;100404.84;2272603;77;21141;-77
2021/05/08 03:34:53;;;;;;;11.33;6.92;;;;;;;2.73;76.50;100400.31;2277034;77;21181;-77
2021/05/08 03:37:56;;;;;;;8.65;6.50;;;;;;;2.81;76.42;100410.26;2272643;77;21144;-77
2021/05/08 03:40:57;;;;;;;8.65;6.35;;;;;;;3.02;76.50;100408.72;2274557;77;21188;-77
2021/05/08 03:43:58;;;;;;;;;;;;;;;3.23;76.42;100404.16;2274887;77;21190;-77
2021/05/08 03:46:59;;;;;;;7.95;5.67;;;;;;;3.53;76.54;100403.21;2273230;76;20276;-77
2021/05/08 03:50:00;;;;;;;9.48;5.58;;;;;;;3.90;76.34;100412.25;2270043;77;21159;-77
2021/05/08 03:53:01;;;;;;;;;;;;;;;4.29;76.14;100410.14;2272507;77;21140;-77
2021/05/08 03:56:02;;;;;;;7.53;5.60;;;;;;;4.55;75.52;100406.78;2274123;76;20591;-78
2021/05/08 03:59:04;;;;;;;10.60;6.60;;;;;;;4.79;75.37;100417.16;2274853;76;21096;-77
2021/05/08 04:02:05;;;;;;;8.13;6.03;;;;;;;4.99;74.86;100414.73;2270621;77;21111;-77
2021/05/08 04:05:07;;;;;;;10.40;6.90;;;;;;;4.91;74.54;100423.23;2269673;77;21136;-78
2021/05/08 04:08:08;;;;;;;9.48;6.50;;;;;;;4.72;74.33;100420.73;2273177;77;21477;-78
2021/05/08 04:11:09;;;;;;;9.85;6.95;;;;;;;4.57;74.31;100425.90;2274599;77;21144;-81
2021/05/08 04:14:11;;;;;;;7.47;6.15;;;;;;;4.47;74.36;100427.08;2270319;77;21206;-77
2021/05/08 04:17:12;;;;;;;8.80;5.75;;;;;;;4.59;74.67;100428.39;2277442;77;22236;-76
2021/05/08 04:20:13;;;;;;;8.30;5.35;;;;;;;4.85;74.74;100426.35;2275520;77;21109;-76
2021/05/08 04:23:15;;;;;;;8.43;5.47;;;;;;;5.06;74.53;100432.98;2272073;77;21575;-76
2021/05/08 04:26:17;;;;;;;9.13;5.72;;;;;;;5.69;74.58;100427.83;2275483;77;21159;-77
2021/05/08 04:29:19;;;;;;;8.28;5.72;;;;;;;6.32;74.17;100438.38;2269718;77;21594;-76
2021/05/08 04:32:20;;;;;;;12.35;5.55;;;;;;;7.00;73.52;100443.40;2273038;77;21152;-78
2021/05/08 04:35:22;;;;;;;12.88;5.95;;;;;;;7.49;72.88;100449.59;2273312;77;21108;-79
2021/05/08 04:38:23;;;;;;;12.00;6.17;;;;;;;8.05;72.32;100444.88;2277369;76;21140;-77
2021/05/08 04:41:25;;;;;;;8.30;5.15;;;;;;;8.38;71.31;100441.35;2275882;77;21160;-76
2021/05/08 04:44:26;;;;;;;8.18;5.62;;;;;;;8.01;70.06;100447.44;2273403;77;21131;-77
2021/05/08 04:47:27;;;;;;;7.12;5.53;;;;;;;7.48;70.18;100439.97;2274770;76;21167;-76
2021/05/08 04:50:29;;;;;;;8.43;5.70;;;;;;;7.22;70.02;100451.56;2269995;77;21156;-82
2021/05/08 04:53:30;;;;;;;12.28;6.60;;;;;;;6.76;69.93;100452.14;2275539;76;21584;-78
2021/05/08 04:56:31;;;;;;;16.82;9.30;;;;;;;6.38;70.33;100456.30;2274777;77;21124;-77
2021/05/08 04:59:32;;;;;;;;;;;;;;;6.13;70.53;100457.55;2277478;77;21161;-79
2021/05/08 05:02:33;;;;;;;15.28;8.83;;;;;;;5.89;70.56;100463.06;2273280;76;20199;-78
2021/05/08 05:05:35;;;;;;;10.72;5.65;;;;;;;5.69;70.75;100464.69;2278467;77;21140;-78
2021/05/08 05:08:36;;;;;;;10.68;6.45;;;;;;;5.56;70.82;100462.25;2270229;76;21184;-74
2021/05/08 05:11:37;;;;;;;9.25;5.20;;;;;;;5.52;71.06;100468.25;2269003;77;21161;-75
2021/05/08 05:14:40;;;;;;;9.33;5.70;;;;;;;5.60;71.27;100467.60;2264845;77;21112;-76
2021/05/08 05:17:41;;;;;;;8.23;5.67;;;;;;;5.56;71.07;100468.83;2264404;77;21132;-76
2021/05/08 05:20:43;;;;;;;;;;;;;;;5.39;71.04;100472.35;2264619;77;21742;-77
2021/05/08 05:23:44;;;;;;;10.48;6.28;;;;;;;5.30;71.22;100473.59;2264802;77;20354;-79
2021/05/08 05:26:45;;;;;;;8.70;5.92;;;;;;;5.79;72.00;100475.66;2259000;77;21112;-76
2021/05/08 05:29:47;;;;;;;8.05;5.50;;;;;;;6.62;71.86;100481.88;2263704;77;21103;-76
2021/05/08 05:32:48;;;;;;;7.08;4.95;;;;;;;7.35;71.24;100473.75;2264151;77;21159;-77
2021/05/08 05:35:51;;;;;;;7.78;5.58;;;;;;;8.16;70.97;100473.42;2264935;77;21620;-75
2021/05/08 05:38:53;;;;;;;7.37;5.20;;;;;;;8.87;69.82;100471.13;2268600;77;21149;-75
2021/05/08 05:41:54;;;;;;;9.35;5.45;;;;;;;9.50;69.14;100477.42;2266471;77;21097;-75
2021/05/08 05:44:55;;;;;;;7.15;5.37;;;;;;;10.04;67.77;100476.88;2265255;77;21165;-81
2021/05/08 05:47:59;;;;;;;7.15;4.97;;;;;;;10.33;66.13;100475.27;2264118;77;21681;-74
2021/05/08 05:51:00;;;;;;;7.45;4.70;;;;;;;10.53;66.23;100481.19;2261052;77;21151;-76
2021/05/08 05:54:02;;;;;;;8.78;4.62;;;;;;;10.73;65.89;100481.81;2266323;77;21591;-77
2021/05/08 05:57:04;;;;;;;10.55;5.37;;;;;;;10.93;63.58;100485.88;2264321;77;21153;-77
2021/05/08 06:00:07;;;;;;;6.83;4.45;;;;;;;10.98;63.59;100489.36;2268074;77;21156;-77
2021/05/08 06:03:09;;;;;;;7.08;5.28;;;;;;;11.16;63.20;100493.27;2269530;77;21094;-75
2021/05/08 06:06:10;;;;;;;6.62;4.45;;;;;;;11.45;63.48;100495.48;2263137;76;21101;-76
2021/05/08 06:09:11;;;;;;;5.85;4.45;;;;;;;11.49;62.05;100486.20;2265020;77;21188;-76
2021/05/08 06:12:13;;;;;;;5.83;4.50;;;;;;;11.72;60.88;100494.37;2263175;77;21160;-82
2021/05/08 06:15:14;;;;;;;5.67;5.08;;;;;;;11.92;61.90;100493.58;2276287;77;21156;-74
2021/05/08 06:18:15;;;;;;;7.22;4.87;;;;;;;12.22;60.95;100504.52;2269459;77;21159;-75
2021/05/08 06:21:17;;;;;;;6.83;4.37;;;;;;;12.33;59.19;100494.86;2276938;77;21144;-75
2021/05/08 06:24:18;;;;;;;5.35;4.80;;;;;;;11.85;59.24;100499.17;2270732;77;21112;-74
2021/05/08 06:27:21;;;;;;;6.87;4.60;;;;;;;11.79;59.30;100511.30;2270231;77;21156;-78
2021/05/08 06:30:22;;;;;;;5.90;4.17;;;;;;;11.95;58.35;100499.89;2267849;77;21156;-75
2021/05/08 06:33:24;;;;;;;7.28;4.40;;;;;;;11.94;57.72;100483.61;2264855;77;21152;-69
2021/05/08 06:36:25;;;;;;;5.55;4.78;;;;;;;12.08;58.54;100500.23;2266195;77;21161;-71
2021/05/08 06:39:30;;;;;;;5.03;3.75;;;;;;;12.29;56.91;100504.19;2268439;77;21730;-70
2021/05/08 06:42:32;;;;;;;5.60;4.37;;;;;;;12.28;55.82;100503.36;2264987;77;21332;-74
2021/05/08 06:45:34;;;;;;;4.95;4.00;;;;;;;12.23;56.27;100502.20;2265696;77;21223;-76
2021/05/08 06:48:36;;;;;;;8.70;4.40;;;;;;;12.20;56.13;100505.20;2262997;77;21602;-74
2021/05/08 06:51:38;;;;;;;6.87;4.30;;;;;;;12.41;55.02;100501.50;2266732;77;21168;-76
2021/05/08 06:54:39;;;;;;;7.08;4.15;;;;;;;12.58;56.68;100507.61;2268558;77;21156;-72
2021/05/08 06:57:40;;;;;;;5.72;4.45;;;;;;;12.81;55.91;100503.75;2262125;77;21591;-74
2021/05/08 07:00:41;;;;;;;6.00;4.05;;;;;;;12.86;55.00;100506.70;2265078;77;21147;-72
2021/05/08 07:03:44;;;;;;;5.25;4.17;;;;;;;13.05;54.71;100505.46;2269213;76;21171;-72
2021/05/08 07:06:46;;;;;;;4.95;4.08;;;;;;;13.03;53.80;100511.97;2269274;77;21155;-71
2021/05/08 07:09:47;;;;;;;5.20;3.80;;;;;;;13.14;54.65;100511.58;2264168;77;21175;-70
2021/05/08 07:12:49;;;;;;;5.25;3.75;;;;;;;13.02;54.33;100517.80;2267137;77;21626;-72
2021/05/08 07:15:50;;;;;;;7.00;4.20;;;;;;;13.04;53.61;100512.31;2263327;77;21184;-72
2021/05/08 07:18:51;;;;;;;4.87;4.37;;;;;;;13.19;52.75;100513.23;2269132;77;21567;-72
2021/05/08 07:21:53;;;;;;;7.42;4.15;;;;;;;13.22;51.84;100508.88;2267274;77;21159;-76
2021/05/08 07:24:55;;;;;;;5.70;4.05;;;;;;;13.28;53.40;100508.72;2268163;77;21119;-73
2021/05/08 07:28:10;;;;;;;8.23;4.83;;;;;;;13.48;53.09;100512.59;2267004;77;21136;-75
2021/05/08 07:31:11;;;;;;;8.28;4.10;;;;;;;13.76;53.32;100511.57;2266843;76;21156;-75
2021/05/08 07:34:12;;;;;;;6.75;4.25;;;;;;;14.17;52.55;100504.58;2268783;77;21096;-84
2021/05/08 07:37:14;;;;;;;5.70;3.87;;;;;;;14.33;52.76;100501.77;2267656;76;21179;-78
2021/05/08 07:40:16;;;;;;;7.80;3.85;;;;;;;14.62;52.43;100505.50;2267465;77;21151;-75
2021/05/08 07:43:18;;;;;;;5.12;3.90;;;;;;;14.84;51.90;100506.43;2270145;77;21180;-74
2021/05/08 07:46:20;;;;;;;4.33;3.58;;;;;;;14.97;50.47;100501.23;2268079;77;21500;-72
2021/05/08 07:49:21;;;;;;;6.12;3.62;;;;;;;14.85;50.68;100505.41;2267923;76;21119;-70
2021/05/08 07:52:22;;;;;;;5.75;4.20;;;;;;;14.92;49.15;100510.34;2267407;77;21190;-73
2021/05/08 07:55:25;;;;;;;8.75;4.72;;;;;;;15.09;49.26;100506.10;2268175;77;21742;-76
2021/05/08 07:58:26;;;;;;;6.25;4.45;;;;;;;14.82;48.87;100505.78;2266992;77;21152;-75
2021/05/08 08:01:27;;;;;;;3.72;3.30;;;;;;;14.71;47.67;100513.73;2271860;77;21127;-75
2021/05/08 08:04:29;;;;;;;6.03;3.10;;;;;;;14.62;48.27;100514.84;2267421;77;21187;-78
2021/05/08 08:07:30;;;;;;;8.60;3.35;;;;;;;14.64;48.08;100511.98;2268625;76;21480;-81
2021/05/08 08:10:31;;;;;;;6.28;3.05;;;;;;;14.60;47.62;100514.20;2272520;77;21155;-74
2021/05/08 08:13:33;;;;;;;4.40;3.33;;;;;;;14.66;47.34;100516.13;2246495;77;21615;-75
2021/05/08 08:16:35;;;;;;;3.65;3.22;;;;;;;14.38;46.67;100512.39;2237681;76;21150;-76
2021/05/08 08:19:36;;;;;;;6.30;3.87;;;;;;;14.30;48.59;100515.48;2235454;77;21155;-78
2021/05/08 08:22:39;;;;;;;6.92;3.75;;;;;;;14.56;48.60;100521.75;2240180;77;21186;-74
2021/05/08 08:25:41;;;;;;;7.78;3.58;;;;;;;14.61;47.51;100524.36;2235254;77;21123;-83
2021/05/08 08:28:42;;;;;;;6.62;3.87;;;;;;;14.35;47.77;100519.74;2228051;76;21181;-79
2021/05/08 08:31:45;;;;;;;3.92;3.52;;;;;;;14.48;46.47;100522.31;2228564;77;21148;-77
2021/05/08 08:34:46;;;;;;;4.70;4.15;;;;;;;14.08;45.79;100527.02;2233145;77;21742;-74
2021/05/08 08:37:47;;;;;;;4.75;3.67;;;;;;;13.39;44.83;100533.13;2231320;77;21073;-73
2021/05/08 08:40:49;;;;;;;6.30;3.60;;;;;;;12.76;47.11;100539.38;2235707;77;21167;-72
2021/05/08 08:43:51;;;;;;;7.08;3.95;;;;;;;12.64;47.37;100540.71;2233370;77;21191;-72
2021/05/08 08:46:52;;;;;;;4.60;3.60;;;;;;;12.34;47.57;100538.61;2236139;77;21157;-71
2021/05/08 08:50:10;;;;;;;10.58;3.87;;;;;;;12.09;48.20;100532.97;2238929;77;22385;-78
2021/05/08 08:53:13;;;;;;;6.35;4.00;;;;;;;11.95;48.46;100534.96;2227521;77;21182;-82
2021/05/08 08:56:15;;;;;;;6.90;3.80;;;;;;;11.97;48.67;100539.13;2229274;77;21166;-71
2021/05/08 09:02:28;;;;;;;6.62;4.10;;;;;;;11.78;48.60;100538.90;2235284;77;21199;-75
2021/05/08 09:05:31;;;;;;;5.87;3.87;;;;;;;11.60;48.62;100545.69;2233806;77;21163;-75
2021/05/08 09:08:33;;;;;;;5.37;3.60;;;;;;;12.14;47.98;100541.79;2233943;76;21164;-72
2021/05/08 09:11:35;;;;;;;7.20;4.65;;;;;;;12.76;49.03;100540.70;2231041;77;21599;-74
2021/05/08 09:14:36;;;;;;;7.45;4.40;;;;;;;13.27;47.01;100526.55;2237908;77;21694;-74
2021/05/08 09:17:44;;;;;;;7.53;4.12;;;;;;;13.55;45.93;100530.06;2268197;77;21183;-74
2021/05/08 09:20:50;;;;;;;6.03;4.10;;;;;;;13.94;44.93;100523.30;2271467;77;21175;-74
2021/05/08 09:23:57;;;;;;;4.28;3.77;;;;;;;14.43;46.63;100535.37;2269518;77;21524;-74
2021/05/08 09:27:00;;;;;;;5.45;4.03;;;;;;;14.80;46.25;100540.67;2272203;76;21180;-74
2021/05/08 09:30:15;;;;;;;5.33;4.22;;;;;;;14.64;45.63;100539.54;2274323;77;21575;-74
2021/05/08 09:33:22;;;;;;;5.92;3.65;;;;;;;14.01;43.37;100532.73;2270364;77;21133;-74
2021/05/08 09:36:24;;;;;;;4.47;3.50;;;;;;;13.95;44.33;100545.45;2268951;77;21160;-74
2021/05/08 09:39:33;;;;;;;4.92;3.70;;;;;;;13.64;45.00;100541.00;2268922;77;21690;-75
2021/05/08 09:42:51;;;;;;;4.70;3.77;;;;;;;13.50;44.51;100539.09;2274202;77;21167;-79
2021/05/08 09:45:53;;;;;;;4.58;3.40;;;;;;;13.64;44.22;100545.00;2269443;77;21171;-73
2021/05/08 09:49:14;;;;;;;4.35;3.67;;;;;;;13.93;44.35;100542.13;2276107;77;21160;-75
2021/05/08 09:52:16;;;;;;;5.12;3.98;;;;;;;14.26;43.97;100531.52;2270751;77;21614;-73
2021/05/08 09:55:20;;;;;;;7.12;4.30;;;;;;;14.64;43.96;100526.19;2272748;77;21108;-78
2021/05/08 09:58:24;;;;;;;5.03;3.70;;;;;;;14.73;42.95;100524.25;2269006;77;21522;-71
2021/05/08 10:01:27;;;;;;;4.92;3.22;;;;;;;14.54;44.06;100529.11;2271830;77;21159;-74
2021/05/08 10:04:42;;;;;;;5.22;3.62;;;;;;;14.37;44.24;100516.08;2271827;77;21144;-69
2021/05/08 10:07:42;;;;;;;5.67;4.00;;;;;;;14.33;44.45;100518.27;2270686;76;21156;-69
2021/05/08 10:10:44;;;;;;;6.65;4.65;;;;;;;13.96;43.74;100520.42;2275323;77;22303;-76
2021/05/08 10:13:46;;;;;;;7.75;4.70;;;;;;;13.70;43.72;100528.80;2260765;76;21654;-72
2021/05/08 10:16:49;;;;;;;7.25;3.83;;;;;;;13.57;44.19;100528.03;2247525;77;21168;-70
2021/05/08 10:19:54;;;;;;;4.50;3.90;;;;;;;13.32;42.29;100518.86;2226277;77;21427;-71
2021/05/08 10:23:00;;;;;;;5.03;4.00;;;;;;;13.53;43.96;100529.41;2250225;77;21135;-69
2021/05/08 10:26:03;;;;;;;7.78;4.35;;;;;;;13.78;43.78;100518.90;2255286;77;21058;-68
2021/05/08 10:29:05;;;;;;;6.85;4.37;;;;;;;14.00;42.12;100510.56;2259168;76;21508;-71
2021/05/08 10:32:10;;;;;;;4.72;4.10;;;;;;;14.20;42.81;100513.56;2250613;77;21136;-70
2021/05/08 10:35:13;;;;;;;7.05;4.95;;;;;;;14.29;42.63;100512.98;2256686;76;21698;-68
2021/05/08 10:38:20;;;;;;;5.87;4.67;;;;;;;14.15;41.51;100498.59;2225273;77;21149;-71
2021/05/08 10:41:29;;;;;;;5.47;4.25;;;;;;;14.43;41.83;100502.82;2252065;77;21112;-74
2021/05/08 10:44:44;;;;;;;4.50;4.10;;;;;;;14.21;41.63;100496.52;2249077;77;21137;-70
2021/05/08 10:48:06;;;;;;;7.00;4.65;;;;;;;13.79;41.46;100504.55;2253654;77;22230;-71
2021/05/08 10:51:08;;;;;;;5.25;3.85;;;;;;;13.61;40.24;100508.02;2249117;77;21662;-71
2021/05/08 10:54:09;;;;;;;8.23;5.15;;;;;;;13.51;41.72;100499.41;2251559;77;21511;-70
2021/05/08 10:57:20;;;;;;;6.67;4.35;;;;;;;13.84;41.86;100501.36;2251310;77;21164;-67
2021/05/08 11:00:24;;;;;;;6.00;4.55;;;;;;;13.92;40.92;100499.13;2253225;76;21128;-72
2021/05/08 11:03:49;;;;;;;7.08;5.25;;;;;;;13.72;41.03;100495.61;2248652;77;21611;-70
2021/05/08 11:07:12;;;;;;;6.50;4.72;;;;;;;13.65;41.62;100495.47;2249018;77;21132;-67
2021/05/08 11:10:37;;;;;;;5.65;5.08;;;;;;;13.95;40.81;100498.27;2246297;77;21128;-67
2021/05/08 11:13:47;;;;;;;5.33;4.83;;;;;;;14.07;39.51;100490.14;2244751;77;21183;-68
2021/05/08 11:16:57;;;;;;;6.20;4.65;;;;;;;14.29;39.67;100488.95;2233583;78;21212;-69
2021/05/08 11:20:33;;;;;;;5.47;4.70;;;;;;;14.51;39.04;100492.58;2234902;78;21223;-68
2021/05/08 11:24:05;;;;;;;6.83;4.80;;;;;;;14.70;39.70;100493.39;2076212;83;21225;-69
2021/05/08 11:27:24;;;;;;;7.53;4.90;;;;;;;14.88;38.29;100486.84;2082304;83;21746;-71
2021/05/08 11:30:25;;;;;;;4.90;4.45;;;;;;;15.09;38.35;100495.41;2076376;83;21602;-70
2021/05/08 11:33:30;;;;;;;4.90;4.22;;;;;;;15.13;37.10;100488.19;2075008;83;21184;-69
2021/05/08 11:36:34;;;;;;;6.83;5.00;;;;;;;15.06;37.30;100489.11;2078131;83;21120;-68
2021/05/08 11:39:45;;;;;;;5.80;4.70;;;;;;;14.91;37.54;100489.96;2075212;83;21168;-68
2021/05/08 11:42:47;;;;;;;;;;;;;;;14.65;36.98;100494.96;2077281;83;21638;-69
2021/05/08 11:45:49;;;;;;;7.15;5.22;;;;;;;14.50;38.08;100500.24;2083952;83;20312;-69
2021/05/08 11:48:57;;;;;;;7.08;4.90;;;;;;;14.46;37.84;100498.97;2081933;83;21598;-69
2021/05/08 11:51:59;;;;;;;6.05;4.80;;;;;;;14.12;38.49;100495.77;2079919;83;21189;-68
2021/05/08 11:55:06;;;;;;;8.05;5.97;;;;;;;14.03;38.96;100498.70;2084790;83;21192;-71
2021/05/08 11:58:09;;;;;;;42.45;22.52;;;;;;;14.11;39.98;100490.63;2080263;83;21631;-77
2021/05/08 12:01:18;;;;;;;88.78;43.42;;;;;;;14.19;39.37;100491.05;2082521;83;21318;-75
2021/05/08 12:04:21;;;;;;;100.30;63.25;;;;;;;14.35;39.50;100482.88;2081350;82;21143;-70
2021/05/08 12:07:34;;;;;;;31.25;22.73;;;;;;;14.54;39.39;100482.89;2087105;83;21293;-69
2021/05/08 12:10:41;;;;;;;17.13;12.23;;;;;;;14.66;39.12;100475.24;2081385;83;21651;-73
2021/05/08 12:13:48;;;;;;;7.62;6.58;;;;;;;14.59;38.77;100481.02;2079624;83;21361;-68
2021/05/08 12:16:49;;;;;;;9.90;8.45;;;;;;;14.31;38.01;100483.77;2083884;83;21631;-69
2021/05/08 12:19:53;;;;;;;8.78;6.50;;;;;;;14.03;38.32;100479.52;2079022;83;21697;-73
2021/05/08 12:23:02;;;;;;;6.75;6.05;;;;;;;13.79;37.84;100475.72;2080180;83;21263;-70
2021/05/08 12:26:11;;;;;;;34.63;23.32;;;;;;;13.64;38.44;100468.50;2070081;83;21203;-70
2021/05/08 12:29:14;;;;;;;12.98;9.50;;;;;;;13.55;39.04;100483.41;2068221;83;21220;-72
2021/05/08 12:32:19;;;;;;;19.85;14.00;;;;;;;13.54;39.53;100481.73;2074381;83;21199;-68
2021/05/08 12:35:21;;;;;;;12.25;8.45;;;;;;;13.56;39.27;100469.88;2029709;85;21248;-69
2021/05/08 12:38:29;;;;;;;13.85;7.12;;;;;;;13.66;39.74;100476.33;2047081;84;21580;-73
2021/05/08 12:41:39;;;;;;;9.93;7.12;;;;;;;13.97;40.07;100468.75;2073875;84;21588;-72
2021/05/08 12:44:47;;;;;;;15.58;9.70;;;;;;;14.17;39.07;100469.89;2070181;84;21666;-70
2021/05/08 12:47:52;;;;;;;6.87;5.92;;;;;;;14.32;39.16;100462.72;2071427;83;21621;-69
2021/05/08 12:50:58;;;;;;;11.20;7.17;;;;;;;14.60;39.35;100464.80;2070678;84;21180;-69
2021/05/08 12:54:20;;;;;;;6.67;5.75;;;;;;;14.85;38.35;100460.50;2070227;84;21164;-73
2021/05/08 12:57:32;;;;;;;11.73;7.03;;;;;;;14.84;37.33;100460.16;2064214;84;21204;-74
2021/05/08 13:00:44;;;;;;;9.15;6.80;;;;;;;14.54;36.86;100448.18;2066949;83;21192;-70
2021/05/08 13:03:48;;;;;;;7.28;5.75;;;;;;;14.42;37.23;100447.78;2071780;84;21198;-71
2021/05/08 13:06:49;;;;;;;7.75;6.37;;;;;;;14.75;37.73;100450.94;2066130;84;21523;-69
2021/05/08 13:09:52;;;;;;;8.95;6.00;;;;;;;14.96;38.14;100442.66;2069129;84;21187;-71
2021/05/08 13:13:01;;;;;;;6.80;4.50;;;;;;;15.09;37.55;100437.47;2077436;84;21086;-70
2021/05/08 13:16:03;;;;;;;6.47;5.37;;;;;;;15.14;37.58;100441.72;2069470;82;21247;-69
2021/05/08 13:19:04;;;;;;;68.42;46.25;;;;;;;15.14;38.08;100426.20;2073235;84;21199;-69
2021/05/08 13:22:06;;;;;;;16.48;11.60;;;;;;;15.16;38.35;100431.67;2077377;83;21192;-70
2021/05/08 13:25:08;;;;;;;45.63;24.45;;;;;;;15.16;37.92;100429.00;2070775;83;21223;-68
2021/05/08 13:28:10;;;;;;;12.20;7.42;;;;;;;14.92;38.25;100424.84;2071149;83;21175;-71
2021/05/08 13:31:11;;;;;;;10.35;7.10;;;;;;;14.62;36.32;100428.05;2074965;83;21717;-74
2021/05/08 13:34:12;;;;;;;41.18;28.15;;;;;;;14.35;36.90;100422.82;2070701;83;21212;-70
2021/05/08 13:37:14;;;;;;;28.95;18.17;;;;;;;14.00;36.71;100427.03;2075297;84;21599;-70
2021/05/08 13:40:18;;;;;;;11.10;8.23;;;;;;;13.87;37.79;100431.13;2070905;84;21183;-66
2021/05/08 13:43:19;;;;;;;10.50;6.87;;;;;;;13.88;38.55;100430.14;2071188;84;21216;-70
2021/05/08 13:46:20;;;;;;;14.18;10.30;;;;;;;13.94;38.26;100430.41;2073258;83;21184;-70
2021/05/08 13:49:21;;;;;;;27.82;18.23;;;;;;;13.97;38.82;100429.56;2073236;83;21175;-70
2021/05/08 13:52:26;;;;;;;44.00;33.50;;;;;;;13.86;38.83;100434.82;2075607;84;21537;-72
2021/05/08 13:55:27;;;;;;;9.33;7.00;;;;;;;13.81;39.42;100437.19;2074012;84;21236;-69
2021/05/08 13:58:29;;;;;;;15.65;11.12;;;;;;;13.85;39.42;100445.17;2069435;83;22488;-69
2021/05/08 14:01:30;;;;;;;53.48;36.23;;;;;;;14.03;39.52;100442.68;2028568;85;21212;-71
2021/05/08 14:04:31;;;;;;;57.38;35.65;;;;;;;14.20;40.03;100430.83;2026825;85;21661;-69
2021/05/08 14:07:33;;;;;;;119.87;75.10;;;;;;;14.42;39.91;100429.61;2031080;85;21202;-65
2021/05/08 14:10:34;;;;;;;133.75;85.20;;;;;;;14.52;39.78;100434.17;2072130;84;21596;-74
2021/05/08 14:13:35;;;;;;;17.17;11.97;;;;;;;14.56;39.80;100431.48;2080812;84;21187;-70
2021/05/08 14:16:37;;;;;;;13.18;7.12;;;;;;;14.48;39.23;100426.20;2076958;84;21188;-69
2021/05/08 14:19:38;;;;;;;8.40;6.47;;;;;;;14.39;39.78;100426.80;2070655;84;21164;-70
2021/05/08 14:22:40;;;;;;;6.55;4.97;;;;;;;14.29;39.73;100424.38;2075803;83;21156;-73